Weather reports worldwide

Advertisment
Cieza, Spain (8363): temperature & dewpoint: 01.08.2020 02:00:00 - 07.08.2020 02:00:00 (CEST)Cieza, Spain (8363): wind speed & gusts: 01.08.2020 02:00:00 - 07.08.2020 02:00:00 (CEST)Cieza, Spain (8363): wind direction: 01.08.2020 02:00:00 - 07.08.2020 02:00:00 (CEST)Cieza, Spain (8363): precipitation: 01.08.2020 02:00:00 - 07.08.2020 02:00:00 (CEST)
Date & Time tt [°C] td [°C] ff [km/h] ff [kn] fx [km/h] fx [kn] dd rr [mm]
07.08.2020 02:00:00 - - - - - - - -
07.08.2020 01:00:00 23,8 17,8 2 1 16 8 ESE 0,0
07.08.2020 00:00:00 24,2 17,0 7 4 19 10 SE 0,0
06.08.2020 23:00:00 25,1 16,6 12 7 30 16 SSE 0,0
06.08.2020 22:00:00 25,9 17,3 14 7 34 18 SE 0,0
06.08.2020 21:00:00 27,3 16,3 14 8 35 19 ESE 0,0
06.08.2020 20:00:00 29,4 14,8 18 10 34 18 SE -
06.08.2020 19:00:00 31,6 14,7 18 10 32 18 SE 0,0
06.08.2020 18:00:00 32,9 15,4 14 7 33 18 ESE 0,0
06.08.2020 17:00:00 33,1 15,6 16 9 32 17 ESE 0,0
06.08.2020 16:00:00 33,8 16,2 10 5 29 16 ESE 0,0
06.08.2020 15:00:00 33,1 16,5 14 7 31 17 SE 0,0
06.08.2020 14:00:00 32,0 16,7 11 6 25 14 SE -
06.08.2020 13:00:00 30,2 15,9 14 8 27 15 SSE 0,0
06.08.2020 12:00:00 28,8 16,0 10 5 21 11 SE 0,0
06.08.2020 11:00:00 25,9 18,1 4 2 13 7 E 0,0
06.08.2020 10:00:00 23,9 19,4 1 1 8 4 WNW 0,0
06.08.2020 09:00:00 22,1 19,3 6 3 11 6 NNE 0,0
06.08.2020 08:00:00 20,7 18,8 2 1 8 5 NNE -
06.08.2020 07:00:00 20,3 19,0 1 0 5 3 E 0,0
06.08.2020 06:00:00 20,8 19,3 0 0 5 3 E 0,0
06.08.2020 05:00:00 21,9 20,0 1 0 7 4 E 0,0
06.08.2020 04:00:00 22,3 20,4 1 1 10 6 ESE 0,0
06.08.2020 03:00:00 22,8 20,7 7 4 15 8 SE 0,0
06.08.2020 02:00:00 23,2 20,9 8 5 17 9 SE -
06.08.2020 01:00:00 23,6 20,5 9 5 20 11 SE 0,0
06.08.2020 00:00:00 24,1 19,8 13 7 27 14 SE 0,0
05.08.2020 23:00:00 25,0 19,1 15 8 32 18 SE 0,0
05.08.2020 22:00:00 26,1 18,2 13 7 29 15 ESE 0,0
05.08.2020 21:00:00 27,7 17,9 15 8 35 19 ESE 0,0
05.08.2020 20:00:00 29,8 17,3 15 8 33 18 ESE -
05.08.2020 19:00:00 31,6 18,2 16 9 37 20 ESE 0,0
05.08.2020 18:00:00 32,6 18,8 15 8 40 22 ESE 0,0
05.08.2020 17:00:00 33,8 18,7 16 9 39 21 SE 0,0
05.08.2020 16:00:00 33,8 18,3 11 6 29 16 ESE 0,0
05.08.2020 15:00:00 33,2 18,2 10 6 26 14 ESE 0,0
05.08.2020 14:00:00 31,9 18,2 9 5 29 16 ESE -
05.08.2020 13:00:00 30,3 18,4 11 6 26 14 ESE 0,0
05.08.2020 12:00:00 28,6 18,7 10 5 23 13 ESE 0,0
05.08.2020 11:00:00 26,7 18,8 8 4 18 10 ESE 0,0
05.08.2020 10:00:00 24,3 20,2 3 1 10 5 ENE 0,0
05.08.2020 09:00:00 22,2 19,2 0 0 5 3 E 0,0
05.08.2020 08:00:00 20,4 18,3 0 0 6 4 NNE -
05.08.2020 07:00:00 20,1 18,2 0 0 0 0 N 0,0
05.08.2020 06:00:00 20,8 18,9 0 0 2 1 N 0,0
05.08.2020 05:00:00 21,7 19,8 0 0 9 5 N 0,0
05.08.2020 04:00:00 22,9 20,8 6 3 15 8 SE 0,0
05.08.2020 03:00:00 23,2 20,7 5 3 19 10 ESE 0,0
05.08.2020 02:00:00 23,6 20,7 11 6 23 13 SE -
05.08.2020 01:00:00 23,8 20,7 12 6 27 15 SE 0,0
05.08.2020 00:00:00 24,2 20,7 15 8 29 16 SE 0,0
04.08.2020 23:00:00 25,0 19,8 13 7 32 17 ESE 0,0
04.08.2020 22:00:00 25,9 19,3 14 8 32 17 ESE 0,0
04.08.2020 21:00:00 27,2 19,3 15 8 40 22 ESE 0,0
04.08.2020 20:00:00 28,3 19,5 17 9 46 25 ESE -
04.08.2020 19:00:00 30,1 19,8 21 11 40 22 ESE 0,0
04.08.2020 18:00:00 32,7 19,9 16 9 37 20 ESE 0,0
04.08.2020 17:00:00 33,6 18,9 11 6 32 18 ESE 0,0
04.08.2020 16:00:00 33,7 19,0 12 6 28 15 SE 0,0
04.08.2020 15:00:00 33,2 19,6 14 8 30 16 SE 0,0
04.08.2020 14:00:00 31,7 20,0 11 6 28 15 ESE -
04.08.2020 13:00:00 31,3 20,9 11 6 28 15 ESE 0,0
04.08.2020 12:00:00 29,4 20,0 11 6 23 12 SE 0,0
04.08.2020 11:00:00 27,4 21,0 10 5 23 13 ESE 0,0
04.08.2020 10:00:00 25,6 21,3 8 4 22 12 ESE 0,0
04.08.2020 09:00:00 25,2 21,5 9 5 19 11 SE 0,0
04.08.2020 08:00:00 24,5 22,0 8 4 16 9 SE -
04.08.2020 07:00:00 24,4 21,9 8 4 15 8 SE 0,0
04.08.2020 06:00:00 24,6 21,7 6 3 16 9 ESE 0,0
04.08.2020 05:00:00 24,6 21,5 10 5 18 10 SE 0,0
04.08.2020 04:00:00 24,7 21,6 10 5 19 10 SE 0,0
04.08.2020 03:00:00 24,6 21,5 10 5 21 12 SE 0,0
04.08.2020 02:00:00 24,7 21,2 14 7 19 11 SE -
04.08.2020 01:00:00 25,0 21,3 6 4 19 10 SE 0,0
04.08.2020 00:00:00 25,0 20,9 8 4 22 12 SE 0,0
03.08.2020 23:00:00 25,6 20,9 8 4 28 15 ESE 0,0
03.08.2020 22:00:00 26,1 20,4 16 9 35 19 SE 0,0
03.08.2020 21:00:00 27,1 20,5 14 8 37 20 ESE 0,0
03.08.2020 20:00:00 28,3 20,3 21 11 41 22 ESE -
03.08.2020 19:00:00 29,9 20,2 23 12 47 26 SE 0,0
03.08.2020 18:00:00 31,9 20,5 20 11 42 23 SE 0,0
03.08.2020 17:00:00 33,6 19,6 15 8 35 19 ESE 0,0
03.08.2020 16:00:00 36,4 17,5 3 2 11 6 E 0,0
03.08.2020 15:00:00 34,8 17,5 3 2 8 4 ESE 0,0
03.08.2020 14:00:00 32,7 17,3 4 2 10 6 NW -
03.08.2020 13:00:00 31,1 17,4 5 3 11 6 W 0,0
03.08.2020 12:00:00 29,3 20,7 3 1 11 6 ESE 0,0
03.08.2020 11:00:00 26,5 20,8 3 2 11 6 WNW 0,0
03.08.2020 10:00:00 25,4 20,9 0 0 6 4 NW 0,0
03.08.2020 09:00:00 23,8 20,7 5 3 14 7 NE 0,0
03.08.2020 08:00:00 21,8 19,6 0 0 8 5 SE -
03.08.2020 07:00:00 22,0 20,5 0 0 5 3 E 0,0
03.08.2020 06:00:00 22,7 21,1 0 0 0 0 N 0,0
03.08.2020 05:00:00 24,1 22,5 0 0 11 6 ESE 0,0
03.08.2020 04:00:00 24,3 22,7 5 3 15 8 SE 0,0
03.08.2020 03:00:00 24,6 22,7 10 5 15 8 SE 0,0
03.08.2020 02:00:00 25,1 22,6 5 3 22 12 SE -
03.08.2020 01:00:00 26,0 22,3 11 6 24 13 SE 0,0
03.08.2020 00:00:00 27,4 21,4 11 6 18 10 SE 0,0
02.08.2020 23:00:00 28,1 20,1 11 6 28 15 SE 0,0
02.08.2020 22:00:00 28,8 21,3 16 9 28 15 SE 0,0
02.08.2020 21:00:00 30,4 20,9 16 9 29 16 SE 0,0
02.08.2020 20:00:00 31,8 21,6 17 9 32 17 SE -
02.08.2020 19:00:00 32,6 21,8 17 9 38 20 SE 0,0
02.08.2020 18:00:00 33,7 22,1 16 9 39 21 ESE 0,0
02.08.2020 17:00:00 34,9 21,6 13 7 33 18 ESE 0,0
02.08.2020 16:00:00 36,2 20,9 9 5 12 7 SE 0,0
02.08.2020 15:00:00 38,6 19,5 2 1 4 2 ESE 0,0
02.08.2020 14:00:00 38,8 19,6 2 1 4 2 E -
02.08.2020 13:00:00 37,6 17,1 3 1 5 3 E 0,0
02.08.2020 12:00:00 35,8 14,4 2 1 7 4 SE 0,0
02.08.2020 11:00:00 31,2 13,1 5 3 14 8 WNW 0,0
02.08.2020 10:00:00 27,8 11,8 9 5 16 9 W 0,0
02.08.2020 09:00:00 24,9 12,4 11 6 15 8 W 0,0
02.08.2020 08:00:00 24,6 11,6 11 6 16 9 W -
02.08.2020 07:00:00 24,2 13,5 11 6 17 9 W 0,0
02.08.2020 06:00:00 24,4 14,5 9 5 16 9 W 0,0
02.08.2020 05:00:00 25,3 15,9 12 6 17 9 W 0,0
02.08.2020 04:00:00 25,7 16,6 9 5 13 7 W 0,0
02.08.2020 03:00:00 25,8 17,5 6 3 10 5 WNW 0,0
02.08.2020 02:00:00 26,7 18,8 4 2 6 4 W -
02.08.2020 01:00:00 27,9 19,1 1 1 4 2 SE 0,0
02.08.2020 00:00:00 29,0 19,3 0 0 4 2 N 0,0
01.08.2020 23:00:00 32,2 20,8 4 2 10 5 SSE 0,0
01.08.2020 22:00:00 33,6 21,4 9 5 19 10 SE 0,0
01.08.2020 21:00:00 36,1 20,0 5 3 11 6 ESE 0,0
01.08.2020 20:00:00 37,5 19,9 4 2 5 3 SE -
01.08.2020 19:00:00 38,8 20,6 1 0 4 2 ESE 0,0
01.08.2020 18:00:00 41,3 17,3 0 0 3 1 SE 0,0
01.08.2020 17:00:00 41,4 18,6 0 0 3 2 SE 0,0
01.08.2020 16:00:00 42,5 15,6 0 0 3 1 SW 0,0
01.08.2020 15:00:00 41,3 16,6 1 1 3 2 WNW 0,0
01.08.2020 14:00:00 39,6 19,3 1 1 5 3 W -
01.08.2020 13:00:00 35,8 20,5 4 2 16 9 W 0,0
01.08.2020 12:00:00 31,2 21,1 11 6 17 9 W 0,0
01.08.2020 11:00:00 27,6 20,7 13 7 18 10 W 0,0
01.08.2020 10:00:00 25,7 20,3 13 7 20 11 W 0,0
01.08.2020 09:00:00 25,0 20,3 8 4 13 7 W 0,0
01.08.2020 08:00:00 23,3 19,6 13 7 17 9 W -
01.08.2020 07:00:00 23,8 20,1 9 5 16 8 W 0,0
01.08.2020 06:00:00 24,2 20,5 5 3 11 6 W 0,0
01.08.2020 05:00:00 24,0 20,5 4 2 6 3 W 0,0
01.08.2020 04:00:00 24,5 20,8 0 0 3 2 N 0,0
01.08.2020 03:00:00 25,1 21,4 0 0 6 4 N 0,0
01.08.2020 02:00:00 25,6 21,1 0 0 5 3 N -

tt = temperature
td = dewpoint
ff = wind speed
fx = gusts
dd = wind direction
rr = precipitation

Next stations